createdAt,value
2022-10-15T00:00:33.647Z,100630.66
2022-10-15T00:05:56.785Z,100632.84
2022-10-15T00:11:22.254Z,100664.97
2022-10-15T00:16:44.033Z,100729.88
2022-10-15T00:22:06.108Z,100696.25
2022-10-15T00:27:28.586Z,100685.06
2022-10-15T00:32:50.104Z,100734.88
2022-10-15T00:38:12.274Z,100736.34
2022-10-15T00:43:45.693Z,100734.47
2022-10-15T00:49:22.645Z,100739.88
2022-10-15T00:54:50.545Z,100737.97
2022-10-15T01:00:15.845Z,100693.00
2022-10-15T01:05:39.783Z,100736.09
2022-10-15T01:11:37.465Z,100705.31
2022-10-15T01:17:21.027Z,100744.13
2022-10-15T01:23:10.874Z,100743.69
2022-10-15T01:28:49.664Z,100748.41
2022-10-15T01:34:36.457Z,100745.38
2022-10-15T01:40:38.173Z,100707.13
2022-10-15T01:46:06.705Z,100754.19
2022-10-15T01:51:41.091Z,100754.75
2022-10-15T01:57:05.166Z,100757.97
2022-10-15T02:02:27.928Z,100751.66
2022-10-15T02:08:08.274Z,100754.63
2022-10-15T02:13:53.385Z,100735.06
2022-10-15T02:19:22.973Z,100662.78
2022-10-15T02:24:55.678Z,100709.16
2022-10-15T02:30:20.051Z,100691.03
2022-10-15T02:35:47.851Z,100731.19
2022-10-15T02:41:11.035Z,100731.41
2022-10-15T02:46:34.073Z,100680.69
2022-10-15T02:52:00.893Z,100723.97
2022-10-15T02:57:26.308Z,100712.25
2022-10-15T03:02:49.107Z,100711.00
2022-10-15T03:08:13.436Z,100733.41
2022-10-15T03:13:40.103Z,100739.53
2022-10-15T03:19:02.509Z,100723.75
2022-10-15T03:24:25.492Z,100685.91
2022-10-15T03:29:48.665Z,100731.22
2022-10-15T03:35:16.828Z,100693.59
2022-10-15T03:47:14.760Z,100739.00
2022-10-15T03:52:42.745Z,100739.06
2022-10-15T03:58:08.833Z,100783.09
2022-10-15T04:03:34.933Z,100768.66
2022-10-15T04:09:39.734Z,100650.53
2022-10-15T04:15:24.686Z,100796.03
2022-10-15T04:20:51.392Z,100807.69
2022-10-15T04:26:17.325Z,100775.53
2022-10-15T04:31:39.813Z,100789.28
2022-10-15T04:37:02.388Z,100789.50
2022-10-15T04:42:25.362Z,100804.63
2022-10-15T04:47:48.395Z,100809.44
2022-10-15T04:53:11.494Z,100814.91
2022-10-15T04:58:36.035Z,100818.53
2022-10-15T05:03:58.165Z,100824.47
2022-10-15T05:09:20.765Z,100827.19
2022-10-15T05:14:44.853Z,100831.56
2022-10-15T05:20:14.778Z,100835.22
2022-10-15T05:25:36.619Z,100830.31
2022-10-15T05:31:06.754Z,100800.47
2022-10-15T05:36:30.354Z,100825.38
2022-10-15T05:41:53.973Z,100840.38
2022-10-15T05:47:24.905Z,100840.19
2022-10-15T05:53:06.153Z,100844.41
2022-10-15T05:58:38.845Z,100847.22
2022-10-15T06:04:00.741Z,100821.56
2022-10-15T06:09:26.164Z,100817.97
2022-10-15T06:14:48.593Z,100771.28
2022-10-15T06:20:11.996Z,100819.31
2022-10-15T06:25:34.785Z,100850.63
2022-10-15T06:31:00.446Z,100784.09
2022-10-15T06:36:26.486Z,100775.13
2022-10-15T06:41:48.245Z,100783.59
2022-10-15T06:47:10.613Z,100863.06
2022-10-15T06:52:33.365Z,100787.72
2022-10-15T06:57:56.845Z,100804.81
2022-10-15T07:03:32.116Z,100803.41
2022-10-15T07:08:54.593Z,100844.28
2022-10-15T07:14:40.021Z,100871.31
2022-10-15T07:20:04.593Z,100886.41
2022-10-15T07:25:27.219Z,100873.47
2022-10-15T07:30:49.194Z,100872.22
2022-10-15T07:36:13.356Z,100891.22
2022-10-15T07:41:39.214Z,100859.94
2022-10-15T07:47:01.112Z,100880.72
2022-10-15T07:52:23.002Z,100866.81
2022-10-15T07:57:45.734Z,100891.16
2022-10-15T08:03:10.553Z,100894.75
2022-10-15T08:08:34.313Z,100825.06
2022-10-15T08:13:56.286Z,100849.50
2022-10-15T08:19:18.395Z,100879.81
2022-10-15T08:24:40.074Z,100908.78
2022-10-15T08:30:02.614Z,100891.53
2022-10-15T08:35:25.586Z,100909.44
2022-10-15T08:40:53.073Z,100894.88
2022-10-15T08:46:41.173Z,100905.25
2022-10-15T08:52:15.674Z,100933.63
2022-10-15T08:57:55.034Z,100914.28
2022-10-15T09:03:26.366Z,100928.97
2022-10-15T09:08:52.696Z,100930.31
2022-10-15T09:14:38.056Z,100928.97
2022-10-15T09:20:24.227Z,100858.59
2022-10-15T09:26:24.494Z,100919.94
2022-10-15T09:43:42.493Z,100884.16
2022-10-15T09:49:25.763Z,100881.50
2022-10-15T09:55:41.986Z,100919.31
2022-10-15T10:01:17.169Z,100888.53
2022-10-15T10:06:52.633Z,100914.41
2022-10-15T10:12:38.173Z,100900.66
2022-10-15T10:18:00.307Z,100915.56
2022-10-15T10:23:24.838Z,100909.63
2022-10-15T10:28:56.843Z,100887.47
2022-10-15T10:34:30.114Z,100930.13
2022-10-15T10:39:59.373Z,100922.56
2022-10-15T10:45:24.089Z,100928.50
2022-10-15T10:50:46.289Z,100931.72
2022-10-15T10:56:11.126Z,100936.56
2022-10-15T11:01:33.115Z,100933.34
2022-10-15T11:07:10.134Z,100936.84
2022-10-15T11:12:35.206Z,100943.59
2022-10-15T11:18:17.760Z,100942.78
2022-10-15T11:24:05.045Z,100937.94
2022-10-15T11:29:55.834Z,100937.69
2022-10-15T11:35:54.278Z,100934.44
2022-10-15T11:47:14.213Z,100937.13
2022-10-15T11:53:01.793Z,100938.75
2022-10-15T11:58:56.368Z,100932.00
2022-10-15T12:04:39.988Z,100926.63
2022-10-15T12:10:13.806Z,100893.19
2022-10-15T12:16:03.153Z,100935.00
2022-10-15T12:21:41.190Z,100939.00
2022-10-15T12:27:37.035Z,100927.97
2022-10-15T12:32:59.494Z,100939.53
2022-10-15T12:38:34.938Z,100941.44
2022-10-15T12:44:08.426Z,100943.59
2022-10-15T12:49:31.607Z,100940.88
2022-10-15T12:54:53.876Z,100928.97
2022-10-15T13:00:31.982Z,100937.88
2022-10-15T13:05:55.768Z,100925.16
2022-10-15T13:11:48.800Z,100941.31
2022-10-15T13:17:21.165Z,100943.50
2022-10-15T13:22:43.615Z,100942.91
2022-10-15T13:28:42.814Z,100940.75
2022-10-15T13:34:24.554Z,100943.69
2022-10-15T13:39:50.255Z,100936.13
2022-10-15T13:45:21.764Z,100936.38
2022-10-15T13:50:43.734Z,100945.00
2022-10-15T13:56:36.013Z,100947.09
2022-10-15T14:02:04.755Z,100933.84
2022-10-15T14:07:29.034Z,100935.91
2022-10-15T14:12:52.795Z,100928.59
2022-10-15T14:18:17.976Z,100960.34
2022-10-15T14:23:41.700Z,100947.59
2022-10-15T14:29:04.027Z,100946.50
2022-10-15T14:34:49.474Z,100963.44
2022-10-15T14:40:11.787Z,100965.00
2022-10-15T14:45:55.826Z,100964.91
2022-10-15T14:51:25.657Z,100963.75
2022-10-15T14:56:49.663Z,100932.13
2022-10-15T15:02:16.305Z,100966.13
2022-10-15T15:07:39.518Z,100968.50
2022-10-15T15:13:01.659Z,100968.44
2022-10-15T15:18:23.585Z,100970.28
2022-10-15T15:23:45.753Z,100934.25
2022-10-15T15:29:16.799Z,100965.06
2022-10-15T15:34:40.933Z,100979.88
2022-10-15T15:40:03.126Z,100946.84
2022-10-15T15:45:27.816Z,100991.00
2022-10-15T15:50:49.676Z,100980.31
2022-10-15T15:56:11.956Z,100976.97
2022-10-15T16:01:34.231Z,100967.25
2022-10-15T16:06:56.464Z,100983.16
2022-10-15T16:12:18.354Z,100986.91
2022-10-15T16:17:40.895Z,100941.56
2022-10-15T16:23:02.508Z,100987.41
2022-10-15T16:28:24.561Z,101000.25
2022-10-15T16:33:47.444Z,100994.69
2022-10-15T16:39:10.913Z,101000.97
2022-10-15T16:44:32.891Z,100981.09
2022-10-15T16:49:56.091Z,100980.53
2022-10-15T16:55:18.455Z,100999.06
2022-10-15T17:00:42.647Z,100997.66
2022-10-15T17:06:07.315Z,101010.19
2022-10-15T17:11:41.412Z,101007.13
2022-10-15T17:17:03.805Z,101012.91
2022-10-15T17:22:27.396Z,100998.56
2022-10-15T17:27:50.863Z,100999.13
2022-10-15T17:33:13.098Z,101000.06
2022-10-15T17:38:35.106Z,101027.63
2022-10-15T17:43:58.247Z,101028.47
2022-10-15T17:49:20.719Z,101031.72
2022-10-15T17:54:42.924Z,101039.41
2022-10-15T18:00:08.543Z,101043.13
2022-10-15T18:05:34.816Z,101036.97
2022-10-15T18:10:56.396Z,101043.38
2022-10-15T18:16:19.374Z,101042.69
2022-10-15T18:21:43.412Z,101051.63
2022-10-15T18:27:07.746Z,101049.31
2022-10-15T18:32:29.314Z,100975.59
2022-10-15T18:37:51.640Z,101023.59
2022-10-15T18:43:16.082Z,101020.31
2022-10-15T18:48:39.615Z,101047.75
2022-10-15T18:54:01.775Z,101058.66
2022-10-15T18:59:23.806Z,101044.94
2022-10-15T19:04:46.988Z,101057.69
2022-10-15T19:10:09.424Z,101021.13
2022-10-15T19:15:32.082Z,101022.47
2022-10-15T19:20:53.725Z,101055.38
2022-10-15T19:26:16.813Z,101071.06
2022-10-15T19:31:43.985Z,101070.19
2022-10-15T19:37:06.765Z,101041.06
2022-10-15T19:42:42.913Z,101074.84
2022-10-15T19:48:04.729Z,101072.03
2022-10-15T19:53:27.073Z,101077.50
2022-10-15T19:58:54.253Z,101099.59
2022-10-15T20:04:16.933Z,101102.84
2022-10-15T20:09:38.974Z,101076.75
2022-10-15T20:15:01.227Z,101099.06
2022-10-15T20:20:23.433Z,101062.63
2022-10-15T20:25:46.647Z,101104.28
2022-10-15T20:31:11.006Z,101106.16
2022-10-15T20:36:35.654Z,101041.88
2022-10-15T20:41:58.149Z,101035.44
2022-10-15T20:47:20.995Z,101058.03
2022-10-15T20:52:43.934Z,101046.97
2022-10-15T20:58:06.070Z,101032.38
2022-10-15T21:03:30.453Z,101046.22
2022-10-15T21:08:53.224Z,101071.22
2022-10-15T21:14:16.305Z,101087.56
2022-10-15T21:19:42.545Z,101079.09
2022-10-15T21:25:07.672Z,101103.56
2022-10-15T21:30:29.952Z,101097.78
2022-10-15T21:35:59.760Z,101046.81
2022-10-15T21:41:22.764Z,101085.66
2022-10-15T21:46:45.091Z,101068.13
2022-10-15T21:52:07.312Z,101075.69
2022-10-15T21:57:29.292Z,101058.91
2022-10-15T22:02:51.413Z,101088.47
2022-10-15T22:08:13.831Z,101065.22
2022-10-15T22:13:36.532Z,101099.41
2022-10-15T22:18:59.225Z,101065.13
2022-10-15T22:24:21.833Z,101141.66
2022-10-15T22:29:44.640Z,101121.44
2022-10-15T22:35:07.284Z,101088.41
2022-10-15T22:40:29.572Z,101117.69
2022-10-15T22:45:51.943Z,101125.94
2022-10-15T22:51:14.472Z,101137.84
2022-10-15T22:56:37.435Z,101156.59
2022-10-15T23:01:59.812Z,101155.31
2022-10-15T23:07:21.552Z,101134.09
2022-10-15T23:12:43.213Z,101160.47
2022-10-15T23:18:05.684Z,101158.00
2022-10-15T23:23:27.536Z,101172.53
2022-10-15T23:28:54.923Z,101173.72
2022-10-15T23:34:23.252Z,101174.53
2022-10-15T23:39:45.265Z,101126.44
2022-10-15T23:45:07.935Z,101128.19
2022-10-15T23:50:37.932Z,101113.50
2022-10-15T23:56:03.364Z,101104.53
